Time;durP1;ratioP1;P1;durP2;ratioP2;P2;SDS_P1;SDS_P2;PMS_P1;PMS_P2;Temp;Humidity;BMP_temperature;BMP_pressure;BME280_temperature;BME280_humidity;BME280_pressure;Samples;Min_cycle;Max_cycle;Signal;HPM_P1;HPM_P2
2021/07/19 00:02:02;;;;;;;14.00;4.82;;;;;;;;;;5085312;28;20452;-83
2021/07/19 00:04:39;;;;;;;6.85;3.55;;;;;;;;;;5089972;28;20028;-81
2021/07/19 00:07:04;;;;;;;7.65;3.60;;;;;;;;;;5104674;28;20130;-81
2021/07/19 00:09:30;;;;;;;7.38;3.70;;;;;;;;;;5072287;28;20035;-81
2021/07/19 00:11:56;;;;;;;9.38;4.22;;;;;;;;;;5070505;28;20042;-81
2021/07/19 00:14:23;;;;;;;8.00;3.88;;;;;;;;;;5086200;28;20028;-81
2021/07/19 00:16:51;;;;;;;9.02;3.97;;;;;;;;;;5070657;28;20032;-81
2021/07/19 00:19:16;;;;;;;10.50;4.05;;;;;;;;;;5085312;28;20040;-81
2021/07/19 00:21:44;;;;;;;11.55;4.43;;;;;;;;;;5087217;28;20086;-81
2021/07/19 00:24:10;;;;;;;7.45;4.45;;;;;;;;;;5071387;28;20033;-81
2021/07/19 00:26:36;;;;;;;8.43;4.00;;;;;;;;;;5065393;28;20067;-81
2021/07/19 00:29:02;;;;;;;8.30;4.10;;;;;;;;;;5070063;28;20036;-81
2021/07/19 00:31:32;;;;;;;8.50;4.85;;;;;;;;;;5053111;28;20480;-81
2021/07/19 00:34:01;;;;;;;6.88;3.83;;;;;;;;;;5054051;28;20128;-81
2021/07/19 00:36:32;;;;;;;11.32;4.00;;;;;;;;;;5068168;28;20033;-81
2021/07/19 00:38:58;;;;;;;9.68;3.97;;;;;;;;;;5086935;28;20044;-81
2021/07/19 00:41:24;;;;;;;13.68;3.97;;;;;;;;;;5068889;28;20024;-81
2021/07/19 00:43:51;;;;;;;7.15;3.45;;;;;;;;;;5066495;28;20063;-81
2021/07/19 00:46:17;;;;;;;9.25;3.67;;;;;;;;;;5066325;28;20063;-81
2021/07/19 00:48:43;;;;;;;9.32;4.05;;;;;;;;;;5065678;28;20032;-81
2021/07/19 00:51:11;;;;;;;8.00;3.67;;;;;;;;;;5066514;28;20056;-81
2021/07/19 00:53:37;;;;;;;8.50;3.78;;;;;;;;;;5082778;28;20123;-81
2021/07/19 00:56:06;;;;;;;10.57;4.75;;;;;;;;;;5065683;28;20033;-81
2021/07/19 00:58:37;;;;;;;7.53;4.07;;;;;;;;;;5065550;28;20031;-81
2021/07/19 01:01:03;;;;;;;5.53;3.90;;;;;;;;;;5064548;28;20047;-81
2021/07/19 01:03:30;;;;;;;12.30;3.97;;;;;;;;;;5064792;28;20097;-81
2021/07/19 01:05:58;;;;;;;8.77;3.92;;;;;;;;;;5064340;28;20115;-81
2021/07/19 01:08:26;;;;;;;9.20;4.03;;;;;;;;;;5072342;28;20397;-81
2021/07/19 01:10:52;;;;;;;7.43;4.07;;;;;;;;;;5061070;28;20066;-81
2021/07/19 01:13:20;;;;;;;8.15;4.20;;;;;;;;;;5045035;28;20097;-81
2021/07/19 01:15:48;;;;;;;10.10;4.60;;;;;;;;;;5061806;28;20526;-81
2021/07/19 01:18:13;;;;;;;8.77;4.40;;;;;;;;;;5060555;28;20032;-81
2021/07/19 01:21:04;;;;;;;9.70;4.35;;;;;;;;;;5043743;28;20029;-81
2021/07/19 01:23:52;;;;;;;10.43;4.90;;;;;;;;;;5051572;28;20076;-81
2021/07/19 01:26:42;;;;;;;9.95;5.00;;;;;;;;;;5080702;28;20037;-81
2021/07/19 01:29:09;;;;;;;13.82;5.05;;;;;;;;;;5081023;28;20033;-81
2021/07/19 01:31:44;;;;;;;10.00;5.03;;;;;;;;;;5065071;28;20126;-81
2021/07/19 01:34:20;;;;;;;9.13;5.72;;;;;;;;;;5063407;28;20033;-81
2021/07/19 01:36:48;;;;;;;;;;;;;;;;;;5065251;28;20526;-81
2021/07/19 01:39:27;;;;;;;11.95;6.03;;;;;;;;;;5085497;28;19916;-81
2021/07/19 01:41:56;;;;;;;9.77;5.45;;;;;;;;;;5100715;28;20495;-81
2021/07/19 01:44:23;;;;;;;14.65;5.70;;;;;;;;;;5107628;28;20032;-81
2021/07/19 01:46:51;;;;;;;15.40;5.35;;;;;;;;;;5108149;28;20039;-81
2021/07/19 01:49:19;;;;;;;16.42;5.65;;;;;;;;;;5105837;28;20028;-81
2021/07/19 01:51:46;;;;;;;14.13;6.20;;;;;;;;;;5104278;28;20440;-81
2021/07/19 01:54:13;;;;;;;9.35;6.10;;;;;;;;;;5106124;28;20551;-81
2021/07/19 01:56:41;;;;;;;16.90;6.47;;;;;;;;;;5106114;28;20497;-81
2021/07/19 01:59:07;;;;;;;14.27;6.97;;;;;;;;;;5104036;28;20505;-81
2021/07/19 02:01:40;;;;;;;11.25;5.88;;;;;;;;;;5121713;28;20032;-81
2021/07/19 02:04:09;;;;;;;13.82;6.03;;;;;;;;;;5104599;28;20426;-81
2021/07/19 02:06:39;;;;;;;11.68;5.85;;;;;;;;;;5119495;28;20027;-81
2021/07/19 02:09:09;;;;;;;10.70;6.28;;;;;;;;;;5101644;28;20031;-81
2021/07/19 02:11:46;;;;;;;14.32;6.60;;;;;;;;;;5101301;28;20032;-81
2021/07/19 02:14:15;;;;;;;14.10;5.50;;;;;;;;;;5114618;28;20182;-81
2021/07/19 02:16:53;;;;;;;11.30;6.32;;;;;;;;;;5099405;28;20036;-82
2021/07/19 02:19:24;;;;;;;10.98;6.88;;;;;;;;;;5103144;28;20074;-82
2021/07/19 02:21:52;;;;;;;10.32;6.15;;;;;;;;;;5104242;28;20038;-82
2021/07/19 02:24:27;;;;;;;12.43;6.83;;;;;;;;;;5094755;28;20060;-82
2021/07/19 02:27:07;;;;;;;14.02;6.75;;;;;;;;;;5073224;28;20044;-81
2021/07/19 02:29:37;;;;;;;13.00;7.10;;;;;;;;;;5069262;28;20090;-82
2021/07/19 02:32:03;;;;;;;10.00;6.68;;;;;;;;;;5067273;28;20081;-82
2021/07/19 02:34:30;;;;;;;15.05;6.60;;;;;;;;;;5067251;28;20025;-82
2021/07/19 02:36:57;;;;;;;11.52;6.45;;;;;;;;;;5082145;28;20104;-82
2021/07/19 02:39:26;;;;;;;15.25;6.72;;;;;;;;;;5065559;28;20036;-82
2021/07/19 02:41:54;;;;;;;11.85;6.93;;;;;;;;;;5064633;28;20515;-83
2021/07/19 02:44:23;;;;;;;10.30;6.50;;;;;;;;;;5063736;28;20040;-82
2021/07/19 02:47:13;;;;;;;11.88;7.22;;;;;;;;;;5055496;28;20421;-82
2021/07/19 02:49:43;;;;;;;12.63;7.72;;;;;;;;;;5043850;28;20120;-78
2021/07/19 02:52:10;;;;;;;12.85;7.45;;;;;;;;;;5057326;28;20025;-80
2021/07/19 02:54:38;;;;;;;9.45;6.18;;;;;;;;;;5055916;28;20029;-79
2021/07/19 02:57:09;;;;;;;15.60;7.72;;;;;;;;;;5056846;28;20052;-81
2021/07/19 02:59:38;;;;;;;11.52;7.95;;;;;;;;;;5040554;28;20091;-80
2021/07/19 03:02:06;;;;;;;12.60;7.72;;;;;;;;;;5056662;28;20124;-84
2021/07/19 03:04:37;;;;;;;14.02;7.50;;;;;;;;;;5058409;28;20080;-84
2021/07/19 03:07:06;;;;;;;16.05;8.00;;;;;;;;;;5048574;28;20029;-85
2021/07/19 03:09:33;;;;;;;10.35;7.57;;;;;;;;;;5092369;28;20040;-85
2021/07/19 03:12:01;;;;;;;14.05;7.28;;;;;;;;;;5074291;28;20399;-85
2021/07/19 03:14:31;;;;;;;12.73;7.82;;;;;;;;;;5091970;28;20063;-86
2021/07/19 03:17:02;;;;;;;17.48;7.93;;;;;;;;;;5091738;28;20059;-86
2021/07/19 03:19:29;;;;;;;14.10;8.65;;;;;;;;;;5074891;28;20066;-85
2021/07/19 03:21:58;;;;;;;12.52;7.25;;;;;;;;;;5075501;28;20058;-85
2021/07/19 03:24:38;;;;;;;19.60;7.63;;;;;;;;;;5077290;28;20040;-85
2021/07/19 03:27:05;;;;;;;14.68;7.47;;;;;;;;;;5079059;28;20032;-85
2021/07/19 03:29:33;;;;;;;13.32;8.25;;;;;;;;;;5078087;28;20033;-85
2021/07/19 03:32:17;;;;;;;11.65;7.43;;;;;;;;;;5080117;28;20032;-85
2021/07/19 03:34:45;;;;;;;17.65;7.43;;;;;;;;;;5070629;28;20024;-85
2021/07/19 03:37:15;;;;;;;13.57;7.45;;;;;;;;;;5059042;28;20367;-84
2021/07/19 03:39:44;;;;;;;12.98;7.65;;;;;;;;;;5059379;28;20036;-84
2021/07/19 03:42:15;;;;;;;9.25;5.93;;;;;;;;;;5043426;28;20534;-84
2021/07/19 03:44:50;;;;;;;12.65;7.45;;;;;;;;;;5058088;28;20063;-84
2021/07/19 03:47:18;;;;;;;16.70;7.10;;;;;;;;;;5058089;28;20124;-84
2021/07/19 03:49:46;;;;;;;16.15;8.07;;;;;;;;;;5058130;28;20078;-84
2021/07/19 03:52:13;;;;;;;17.92;8.45;;;;;;;;;;5057733;28;20035;-84
2021/07/19 03:54:43;;;;;;;13.68;7.72;;;;;;;;;;5057617;28;20025;-85
2021/07/19 03:57:12;;;;;;;13.02;7.35;;;;;;;;;;5072876;28;20044;-85
2021/07/19 03:59:39;;;;;;;16.70;8.00;;;;;;;;;;5057561;28;20488;-86
2021/07/19 04:02:14;;;;;;;13.05;7.78;;;;;;;;;;5074025;28;20104;-86
2021/07/19 04:04:45;;;;;;;11.43;7.57;;;;;;;;;;5056053;28;20569;-85
2021/07/19 04:07:13;;;;;;;14.52;7.75;;;;;;;;;;5076649;28;20040;-85
2021/07/19 04:09:43;;;;;;;17.23;7.78;;;;;;;;;;5092976;28;20032;-85
2021/07/19 04:12:15;;;;;;;15.60;7.75;;;;;;;;;;5091846;28;20040;-85
2021/07/19 04:14:44;;;;;;;11.20;7.10;;;;;;;;;;5075666;28;20024;-85
2021/07/19 04:17:10;;;;;;;13.82;7.40;;;;;;;;;;5076188;28;20045;-85
2021/07/19 04:19:35;;;;;;;11.95;7.40;;;;;;;;;;5093270;28;20028;-85
2021/07/19 04:22:02;;;;;;;18.33;8.43;;;;;;;;;;5076117;28;20032;-85
2021/07/19 04:24:44;;;;;;;17.02;8.02;;;;;;;;;;5091773;28;20033;-85
2021/07/19 04:27:12;;;;;;;14.10;7.20;;;;;;;;;;5092820;28;20073;-86
2021/07/19 04:29:38;;;;;;;12.75;8.13;;;;;;;;;;5092467;28;20032;-85
2021/07/19 04:32:04;;;;;;;12.13;7.80;;;;;;;;;;5076242;28;20037;-85
2021/07/19 04:34:36;;;;;;;10.98;7.03;;;;;;;;;;5076105;28;20029;-85
2021/07/19 04:37:10;;;;;;;14.05;7.38;;;;;;;;;;5076358;28;20032;-85
2021/07/19 04:39:42;;;;;;;13.45;7.47;;;;;;;;;;5074718;28;20069;-86
2021/07/19 04:42:11;;;;;;;13.38;7.72;;;;;;;;;;5091993;28;20044;-85
2021/07/19 04:44:38;;;;;;;16.15;7.53;;;;;;;;;;5075013;28;20040;-85
2021/07/19 04:47:04;;;;;;;13.93;6.88;;;;;;;;;;5074729;28;20032;-85
2021/07/19 04:49:31;;;;;;;13.95;7.07;;;;;;;;;;5074545;28;20063;-85
2021/07/19 04:51:57;;;;;;;17.67;7.85;;;;;;;;;;5070868;28;20036;-85
2021/07/19 04:54:29;;;;;;;11.60;7.18;;;;;;;;;;5070081;28;20067;-84
2021/07/19 04:56:59;;;;;;;13.95;7.50;;;;;;;;;;5072684;28;20029;-85
2021/07/19 04:59:29;;;;;;;11.00;6.93;;;;;;;;;;5088829;28;20040;-83
2021/07/19 05:01:55;;;;;;;9.52;6.55;;;;;;;;;;5063498;28;20032;-84
2021/07/19 05:04:25;;;;;;;11.63;7.07;;;;;;;;;;5079166;28;20492;-85
2021/07/19 05:06:53;;;;;;;18.17;7.25;;;;;;;;;;5061851;28;20115;-84
2021/07/19 05:09:22;;;;;;;10.82;6.57;;;;;;;;;;5059064;28;20127;-85
2021/07/19 05:11:49;;;;;;;9.27;6.35;;;;;;;;;;5064572;28;20041;-85
2021/07/19 05:14:15;;;;;;;12.25;6.50;;;;;;;;;;5064232;28;20037;-85
2021/07/19 05:16:41;;;;;;;14.90;7.10;;;;;;;;;;5064345;28;20043;-85
2021/07/19 05:19:09;;;;;;;14.30;7.13;;;;;;;;;;5065208;28;20040;-85
2021/07/19 05:21:36;;;;;;;12.43;6.97;;;;;;;;;;5047628;28;20045;-85
2021/07/19 05:24:02;;;;;;;15.18;7.32;;;;;;;;;;5045934;28;20048;-84
2021/07/19 05:26:31;;;;;;;12.50;7.13;;;;;;;;;;5079270;28;20048;-84
2021/07/19 05:28:57;;;;;;;18.80;7.82;;;;;;;;;;5063004;28;20135;-84
2021/07/19 05:31:23;;;;;;;14.15;7.18;;;;;;;;;;5077639;28;20068;-84
2021/07/19 05:33:49;;;;;;;17.85;8.10;;;;;;;;;;5061630;28;20033;-84
2021/07/19 05:36:17;;;;;;;15.25;6.90;;;;;;;;;;5061156;28;20037;-83
2021/07/19 05:38:43;;;;;;;14.07;7.07;;;;;;;;;;5078385;28;20051;-83
2021/07/19 05:41:09;;;;;;;11.93;6.82;;;;;;;;;;5100153;28;20072;-84
2021/07/19 05:43:36;;;;;;;11.27;7.30;;;;;;;;;;5095607;28;20407;-84
2021/07/19 05:46:04;;;;;;;16.08;7.65;;;;;;;;;;5096629;28;20078;-85
2021/07/19 05:48:30;;;;;;;14.30;6.65;;;;;;;;;;5096067;28;20033;-84
2021/07/19 05:50:57;;;;;;;13.32;6.47;;;;;;;;;;5079232;28;20465;-84
2021/07/19 05:53:24;;;;;;;11.95;6.68;;;;;;;;;;5062891;28;20059;-84
2021/07/19 05:55:50;;;;;;;7.82;6.22;;;;;;;;;;5096244;28;20101;-84
2021/07/19 05:58:17;;;;;;;13.27;7.22;;;;;;;;;;5079405;28;20033;-84
2021/07/19 06:00:43;;;;;;;13.50;6.78;;;;;;;;;;5078845;28;20078;-85
2021/07/19 06:03:08;;;;;;;14.40;6.68;;;;;;;;;;5097742;28;20036;-84
2021/07/19 06:05:37;;;;;;;11.90;6.47;;;;;;;;;;5096016;28;20036;-84
2021/07/19 06:08:06;;;;;;;16.40;7.45;;;;;;;;;;5094403;28;20063;-84
2021/07/19 06:10:31;;;;;;;19.83;8.38;;;;;;;;;;5082013;28;20088;-85
2021/07/19 06:12:57;;;;;;;12.80;6.18;;;;;;;;;;5096624;28;20439;-85
2021/07/19 06:15:23;;;;;;;12.18;6.63;;;;;;;;;;5100572;28;20116;-80
2021/07/19 06:17:50;;;;;;;10.20;5.97;;;;;;;;;;5095712;28;20392;-83
2021/07/19 06:20:18;;;;;;;12.32;6.40;;;;;;;;;;5094779;28;20032;-83
2021/07/19 06:22:45;;;;;;;11.38;7.00;;;;;;;;;;5094816;28;20197;-81
2021/07/19 06:25:12;;;;;;;14.35;6.50;;;;;;;;;;5099052;28;20032;-82
2021/07/19 06:27:38;;;;;;;11.30;6.32;;;;;;;;;;5099217;28;20067;-82
2021/07/19 06:30:08;;;;;;;9.48;5.60;;;;;;;;;;5099112;28;20019;-81
2021/07/19 06:32:34;;;;;;;12.77;6.20;;;;;;;;;;5098297;28;20422;-81
2021/07/19 06:34:59;;;;;;;11.30;6.22;;;;;;;;;;5097591;28;20088;-81
2021/07/19 06:37:25;;;;;;;13.23;5.88;;;;;;;;;;5103369;28;20031;-81
2021/07/19 06:39:50;;;;;;;17.60;6.43;;;;;;;;;;5101474;28;20462;-81
2021/07/19 06:42:16;;;;;;;16.80;6.65;;;;;;;;;;5101174;28;20089;-83
2021/07/19 06:44:41;;;;;;;13.65;5.93;;;;;;;;;;5101276;28;20041;-81
2021/07/19 06:47:07;;;;;;;11.15;6.35;;;;;;;;;;5099599;28;20031;-81
2021/07/19 06:49:33;;;;;;;11.88;5.63;;;;;;;;;;5116602;28;20027;-82
2021/07/19 06:51:59;;;;;;;14.00;6.35;;;;;;;;;;5117417;28;20486;-84
2021/07/19 06:54:24;;;;;;;15.30;5.90;;;;;;;;;;5109360;28;20039;-82
2021/07/19 06:56:50;;;;;;;8.02;5.35;;;;;;;;;;5078051;28;20032;-80
2021/07/19 06:59:15;;;;;;;13.63;5.60;;;;;;;;;;5079033;28;20578;-81
2021/07/19 07:01:41;;;;;;;8.82;5.70;;;;;;;;;;5079484;28;20443;-83
2021/07/19 07:04:08;;;;;;;13.10;5.80;;;;;;;;;;5076821;28;20062;-78
2021/07/19 07:06:34;;;;;;;11.10;5.68;;;;;;;;;;5095605;28;20399;-81
2021/07/19 07:09:03;;;;;;;13.48;6.20;;;;;;;;;;5079299;28;20035;-81
2021/07/19 07:11:30;;;;;;;12.13;5.50;;;;;;;;;;5095498;28;20028;-81
2021/07/19 07:13:57;;;;;;;9.68;5.93;;;;;;;;;;5078410;28;20060;-81
2021/07/19 07:16:23;;;;;;;13.27;6.40;;;;;;;;;;5095573;28;20047;-81
2021/07/19 07:18:49;;;;;;;11.70;5.70;;;;;;;;;;5082855;28;20032;-82
2021/07/19 07:21:16;;;;;;;11.82;6.15;;;;;;;;;;5080945;28;20040;-79
2021/07/19 07:23:42;;;;;;;9.68;5.60;;;;;;;;;;5086616;28;20120;-77
2021/07/19 07:26:08;;;;;;;12.10;5.90;;;;;;;;;;5059371;28;20043;-78
2021/07/19 07:28:33;;;;;;;15.23;5.55;;;;;;;;;;5075531;28;20028;-78
2021/07/19 07:30:59;;;;;;;16.85;6.72;;;;;;;;;;5072739;28;20041;-76
2021/07/19 07:33:25;;;;;;;17.50;10.43;;;;;;;;;;5073224;28;20028;-77
2021/07/19 07:35:51;;;;;;;13.38;6.57;;;;;;;;;;5073750;28;20064;-77
2021/07/19 07:38:17;;;;;;;13.93;6.15;;;;;;;;;;5056312;28;20055;-78
2021/07/19 07:40:43;;;;;;;9.50;6.00;;;;;;;;;;5073816;28;20033;-78
2021/07/19 07:43:08;;;;;;;11.52;5.82;;;;;;;;;;5040812;28;20094;-78
2021/07/19 07:45:34;;;;;;;12.00;5.30;;;;;;;;;;5058676;28;20120;-79
2021/07/19 07:48:03;;;;;;;11.68;6.13;;;;;;;;;;5040819;28;20131;-77
2021/07/19 07:50:29;;;;;;;10.50;5.55;;;;;;;;;;5040335;28;20064;-77
2021/07/19 07:52:56;;;;;;;8.18;5.45;;;;;;;;;;5043074;28;20029;-78
2021/07/19 07:55:21;;;;;;;9.55;5.32;;;;;;;;;;5043938;28;20036;-77
2021/07/19 07:57:49;;;;;;;11.20;5.38;;;;;;;;;;5060006;28;20029;-78
2021/07/19 08:00:17;;;;;;;11.02;4.68;;;;;;;;;;5059398;28;20434;-78
2021/07/19 08:02:43;;;;;;;16.08;5.43;;;;;;;;;;5043166;28;20036;-78
2021/07/19 08:05:10;;;;;;;11.95;4.70;;;;;;;;;;5060205;28;20431;-80
2021/07/19 08:07:41;;;;;;;10.23;4.22;;;;;;;;;;5049768;28;20085;-85
2021/07/19 08:10:09;;;;;;;9.43;4.70;;;;;;;;;;5066400;28;20134;-84
2021/07/19 08:12:34;;;;;;;11.52;5.18;;;;;;;;;;5064878;28;20032;-84
2021/07/19 08:15:03;;;;;;;9.05;4.35;;;;;;;;;;5084391;28;20499;-85
2021/07/19 08:17:30;;;;;;;11.95;4.22;;;;;;;;;;5062602;28;20081;-79
2021/07/19 08:19:57;;;;;;;6.40;3.83;;;;;;;;;;5078054;28;20141;-83
2021/07/19 08:22:25;;;;;;;8.30;4.20;;;;;;;;;;5061580;28;20036;-82
2021/07/19 08:24:51;;;;;;;7.32;3.72;;;;;;;;;;5060234;28;20086;-82
2021/07/19 08:27:17;;;;;;;7.90;4.25;;;;;;;;;;5062672;28;20090;-82
2021/07/19 08:29:42;;;;;;;12.82;4.30;;;;;;;;;;5084862;28;20040;-84
2021/07/19 08:32:08;;;;;;;7.95;3.55;;;;;;;;;;5084777;28;20043;-84
2021/07/19 08:34:33;;;;;;;8.90;4.32;;;;;;;;;;5089768;28;20095;-84
2021/07/19 08:37:00;;;;;;;5.93;3.38;;;;;;;;;;5066598;28;20037;-85
2021/07/19 08:39:26;;;;;;;6.85;3.67;;;;;;;;;;5064575;28;20033;-84
2021/07/19 08:41:52;;;;;;;7.15;3.28;;;;;;;;;;5044223;28;20564;-84
2021/07/19 08:44:18;;;;;;;7.25;3.50;;;;;;;;;;5067620;28;20024;-83
2021/07/19 08:46:44;;;;;;;6.30;3.88;;;;;;;;;;5079564;28;20028;-83
2021/07/19 08:49:10;;;;;;;8.77;3.92;;;;;;;;;;5048708;28;20041;-83
2021/07/19 08:51:41;;;;;;;10.50;3.85;;;;;;;;;;5084758;28;20063;-86
2021/07/19 08:54:12;;;;;;;9.88;4.25;;;;;;;;;;5054025;28;20036;-84
2021/07/19 08:56:38;;;;;;;7.10;3.40;;;;;;;;;;5062726;28;20039;-84
2021/07/19 08:59:07;;;;;;;8.80;4.47;;;;;;;;;;5082555;28;20032;-84
2021/07/19 09:01:42;;;;;;;7.88;3.75;;;;;;;;;;5064474;28;20094;-83
2021/07/19 09:04:08;;;;;;;7.20;3.50;;;;;;;;;;5079508;28;20042;-84
2021/07/19 09:06:34;;;;;;;8.02;3.63;;;;;;;;;;5060439;28;20466;-83
2021/07/19 09:09:02;;;;;;;6.13;3.17;;;;;;;;;;5064446;28;20032;-82
2021/07/19 09:11:28;;;;;;;6.75;3.08;;;;;;;;;;5062666;28;20094;-82
2021/07/19 09:14:01;;;;;;;7.18;3.03;;;;;;;;;;5077966;28;20032;-84
2021/07/19 09:16:43;;;;;;;6.22;2.80;;;;;;;;;;5077307;28;20562;-84
2021/07/19 09:19:21;;;;;;;9.10;3.15;;;;;;;;;;5057951;28;20040;-85
2021/07/19 09:21:50;;;;;;;8.40;3.40;;;;;;;;;;5061135;28;20036;-83
2021/07/19 09:24:19;;;;;;;6.05;3.25;;;;;;;;;;5073680;28;20126;-84
2021/07/19 09:26:48;;;;;;;8.65;3.20;;;;;;;;;;5080222;28;20032;-84
2021/07/19 09:29:17;;;;;;;6.20;2.90;;;;;;;;;;5099395;28;20044;-82
2021/07/19 09:31:51;;;;;;;8.60;3.22;;;;;;;;;;5098681;28;20032;-82
2021/07/19 09:34:21;;;;;;;6.80;2.70;;;;;;;;;;5084275;28;20491;-84
2021/07/19 09:37:02;;;;;;;6.20;2.85;;;;;;;;;;5081326;28;20032;-86
2021/07/19 09:39:38;;;;;;;6.10;2.80;;;;;;;;;;5097232;28;20040;-84
2021/07/19 09:42:18;;;;;;;5.70;2.53;;;;;;;;;;5100960;28;20036;-84
2021/07/19 09:44:53;;;;;;;6.65;2.80;;;;;;;;;;5098434;28;20034;-82
2021/07/19 09:47:30;;;;;;;10.40;3.10;;;;;;;;;;5081690;28;20538;-84
2021/07/19 09:49:57;;;;;;;6.07;2.88;;;;;;;;;;5099030;28;20036;-84
2021/07/19 09:52:33;;;;;;;10.65;3.15;;;;;;;;;;5080690;28;20406;-87
2021/07/19 09:54:58;;;;;;;12.10;3.80;;;;;;;;;;5101934;28;20036;-85
2021/07/19 09:57:23;;;;;;;9.98;2.80;;;;;;;;;;5097291;28;20475;-84
2021/07/19 09:59:53;;;;;;;9.20;2.95;;;;;;;;;;5099700;28;20077;-83
2021/07/19 10:02:43;;;;;;;9.40;2.70;;;;;;;;;;5115408;28;20028;-85
2021/07/19 10:05:21;;;;;;;12.93;3.22;;;;;;;;;;5098808;28;20040;-85
2021/07/19 10:07:47;;;;;;;8.30;2.78;;;;;;;;;;5099373;28;20058;-84
2021/07/19 10:10:12;;;;;;;7.35;3.03;;;;;;;;;;5097025;28;20036;-85
2021/07/19 10:12:38;;;;;;;5.93;2.50;;;;;;;;;;5098970;28;20122;-87
2021/07/19 10:15:06;;;;;;;5.43;2.28;;;;;;;;;;5100497;28;20036;-85
2021/07/19 10:17:32;;;;;;;12.30;3.20;;;;;;;;;;5099530;28;20035;-84
2021/07/19 10:19:58;;;;;;;6.05;3.05;;;;;;;;;;5106009;28;20040;-84
2021/07/19 10:22:24;;;;;;;8.13;2.70;;;;;;;;;;5100932;28;20031;-84
2021/07/19 10:24:51;;;;;;;6.55;2.75;;;;;;;;;;5085189;28;20052;-85
2021/07/19 10:27:22;;;;;;;7.43;2.47;;;;;;;;;;5064630;28;20036;-82
2021/07/19 10:29:49;;;;;;;6.80;2.33;;;;;;;;;;5058758;28;20043;-80
2021/07/19 10:32:23;;;;;;;5.80;3.10;;;;;;;;;;5077795;28;20040;-81
2021/07/19 10:34:53;;;;;;;7.28;2.67;;;;;;;;;;5062237;28;20085;-84
2021/07/19 10:37:25;;;;;;;7.68;2.80;;;;;;;;;;5059813;28;20072;-82
2021/07/19 10:39:55;;;;;;;8.50;2.58;;;;;;;;;;5063403;28;20048;-81
2021/07/19 10:42:31;;;;;;;5.78;2.50;;;;;;;;;;5042036;28;20044;-80
2021/07/19 10:45:13;;;;;;;7.88;3.15;;;;;;;;;;5059165;28;20044;-80
2021/07/19 10:47:53;;;;;;;9.93;3.00;;;;;;;;;;5040503;28;20041;-81
2021/07/19 10:50:28;;;;;;;7.30;3.17;;;;;;;;;;5039436;28;20040;-81
2021/07/19 10:52:56;;;;;;;8.10;3.00;;;;;;;;;;5055791;28;20033;-80
2021/07/19 10:55:33;;;;;;;9.25;3.28;;;;;;;;;;5056457;28;20060;-81
2021/07/19 10:58:15;;;;;;;9.82;2.50;;;;;;;;;;5040215;28;20033;-83
2021/07/19 11:00:43;;;;;;;8.52;2.85;;;;;;;;;;5056380;28;20033;-82
2021/07/19 11:03:10;;;;;;;7.55;2.85;;;;;;;;;;5056696;28;20037;-82
2021/07/19 11:05:42;;;;;;;9.60;3.25;;;;;;;;;;5056248;28;20500;-81
2021/07/19 11:08:24;;;;;;;7.05;2.90;;;;;;;;;;5049840;28;20101;-81
2021/07/19 11:10:52;;;;;;;8.32;2.90;;;;;;;;;;5073624;28;20043;-80
2021/07/19 11:13:34;;;;;;;8.43;2.83;;;;;;;;;;5072979;28;20403;-81
2021/07/19 11:16:12;;;;;;;6.70;2.92;;;;;;;;;;5073422;28;20100;-80
2021/07/19 11:18:38;;;;;;;7.55;3.20;;;;;;;;;;5058147;28;20037;-81
2021/07/19 11:21:04;;;;;;;7.05;2.58;;;;;;;;;;5058478;28;20377;-81
2021/07/19 11:23:33;;;;;;;4.78;2.50;;;;;;;;;;5073318;28;20413;-82
2021/07/19 11:26:04;;;;;;;11.57;2.80;;;;;;;;;;5075854;28;20041;-79
2021/07/19 11:28:39;;;;;;;5.00;2.90;;;;;;;;;;5077247;28;20029;-80
2021/07/19 11:31:14;;;;;;;5.95;2.58;;;;;;;;;;5078344;28;20032;-80
2021/07/19 11:33:47;;;;;;;8.75;3.20;;;;;;;;;;5079121;28;20132;-79
2021/07/19 11:36:22;;;;;;;7.55;3.20;;;;;;;;;;5062082;28;20037;-79
2021/07/19 11:38:48;;;;;;;6.60;3.25;;;;;;;;;;5087702;28;20532;-80
2021/07/19 11:41:33;;;;;;;7.60;3.25;;;;;;;;;;5070163;28;20048;-81
2021/07/19 11:44:02;;;;;;;6.15;2.97;;;;;;;;;;5087741;28;20127;-80
2021/07/19 11:46:32;;;;;;;10.90;3.40;;;;;;;;;;5069443;28;20040;-80
2021/07/19 11:49:05;;;;;;;8.55;3.50;;;;;;;;;;5069691;28;20032;-78
2021/07/19 11:51:33;;;;;;;6.28;3.25;;;;;;;;;;5070087;28;20104;-81
2021/07/19 11:53:59;;;;;;;25.88;6.35;;;;;;;;;;5069316;28;20033;-81
2021/07/19 11:56:29;;;;;;;10.88;3.70;;;;;;;;;;5069111;28;20029;-78
2021/07/19 11:58:59;;;;;;;10.02;3.67;;;;;;;;;;5082909;28;20024;-80
2021/07/19 12:01:32;;;;;;;7.55;3.85;;;;;;;;;;5065101;28;20097;-78
2021/07/19 12:03:59;;;;;;;6.47;3.88;;;;;;;;;;5085179;28;20040;-78
2021/07/19 12:06:25;;;;;;;9.60;4.55;;;;;;;;;;5085057;28;20036;-78
2021/07/19 12:08:57;;;;;;;9.27;3.55;;;;;;;;;;5058427;28;20033;-78
2021/07/19 12:11:24;;;;;;;8.85;3.75;;;;;;;;;;5073258;28;20057;-78
2021/07/19 12:13:54;;;;;;;8.70;3.67;;;;;;;;;;5066577;28;20037;-78
2021/07/19 12:16:20;;;;;;;8.68;3.72;;;;;;;;;;5049787;28;20060;-78
2021/07/19 12:18:48;;;;;;;8.48;4.03;;;;;;;;;;5068086;28;20033;-78
2021/07/19 12:21:23;;;;;;;8.57;3.70;;;;;;;;;;5066462;28;20037;-78
2021/07/19 12:23:53;;;;;;;16.27;3.67;;;;;;;;;;5058409;28;20404;-78
2021/07/19 12:26:21;;;;;;;12.63;4.20;;;;;;;;;;5085730;28;20044;-78
2021/07/19 12:29:02;;;;;;;8.07;3.78;;;;;;;;;;5070449;28;20068;-78
2021/07/19 12:31:36;;;;;;;12.18;4.65;;;;;;;;;;5086633;28;20045;-78
2021/07/19 12:34:10;;;;;;;10.02;3.70;;;;;;;;;;5085204;28;20036;-78
2021/07/19 12:36:38;;;;;;;7.45;3.50;;;;;;;;;;5065328;28;20047;-77
2021/07/19 12:39:09;;;;;;;7.47;4.05;;;;;;;;;;5065034;28;20036;-80
2021/07/19 12:41:36;;;;;;;7.70;3.80;;;;;;;;;;5069859;28;20029;-81
2021/07/19 12:44:05;;;;;;;15.68;4.22;;;;;;;;;;5054768;28;20460;-81
2021/07/19 12:46:33;;;;;;;11.15;4.50;;;;;;;;;;5070946;28;20044;-81
2021/07/19 12:48:58;;;;;;;9.23;4.45;;;;;;;;;;5052842;28;20474;-78
2021/07/19 12:51:27;;;;;;;7.57;4.18;;;;;;;;;;5053701;28;20052;-79
2021/07/19 12:53:58;;;;;;;8.85;4.97;;;;;;;;;;5052433;28;20032;-76
2021/07/19 12:56:23;;;;;;;11.82;4.30;;;;;;;;;;5065299;28;20458;-79
2021/07/19 12:58:57;;;;;;;8.82;4.20;;;;;;;;;;5045701;28;20053;-78
2021/07/19 13:01:35;;;;;;;11.73;4.30;;;;;;;;;;5046771;28;20029;-79
2021/07/19 13:04:04;;;;;;;8.57;4.32;;;;;;;;;;5052138;28;20037;-79
2021/07/19 13:06:30;;;;;;;9.77;4.40;;;;;;;;;;5053454;28;20040;-80
2021/07/19 13:08:56;;;;;;;9.10;4.65;;;;;;;;;;5071277;28;20024;-79
2021/07/19 13:11:31;;;;;;;12.32;4.10;;;;;;;;;;5072521;28;20032;-80
2021/07/19 13:14:07;;;;;;;11.43;4.25;;;;;;;;;;5072414;28;20036;-80
2021/07/19 13:16:33;;;;;;;25.13;5.07;;;;;;;;;;5088548;28;20123;-79
2021/07/19 13:18:58;;;;;;;10.93;4.90;;;;;;;;;;5088389;28;20021;-80
2021/07/19 13:21:25;;;;;;;6.60;4.40;;;;;;;;;;5071673;28;20037;-79
2021/07/19 13:23:51;;;;;;;7.18;3.85;;;;;;;;;;5071077;28;20067;-80
2021/07/19 13:26:17;;;;;;;15.93;4.93;;;;;;;;;;5071607;28;20032;-79
2021/07/19 13:28:45;;;;;;;11.02;4.10;;;;;;;;;;5088003;28;20100;-79
2021/07/19 13:31:12;;;;;;;7.78;4.25;;;;;;;;;;5089144;28;20075;-80
2021/07/19 13:33:45;;;;;;;10.65;4.60;;;;;;;;;;5064431;28;20064;-79
2021/07/19 13:36:11;;;;;;;6.47;3.58;;;;;;;;;;5062907;28;20468;-81
2021/07/19 13:38:43;;;;;;;12.02;4.72;;;;;;;;;;5067096;28;20040;-84
2021/07/19 13:41:18;;;;;;;7.15;4.53;;;;;;;;;;5067578;28;20066;-82
2021/07/19 13:43:45;;;;;;;11.18;5.05;;;;;;;;;;5067173;28;20100;-77
2021/07/19 13:46:13;;;;;;;11.00;4.63;;;;;;;;;;5085433;28;20484;-81
2021/07/19 13:48:38;;;;;;;10.65;4.70;;;;;;;;;;5078640;28;20032;-80
2021/07/19 13:51:05;;;;;;;8.85;4.50;;;;;;;;;;5077029;28;20430;-79
2021/07/19 13:53:31;;;;;;;13.70;5.20;;;;;;;;;;5073980;28;20036;-78
2021/07/19 13:56:01;;;;;;;10.80;5.65;;;;;;;;;;5076040;28;20035;-79
2021/07/19 13:58:28;;;;;;;18.52;5.95;;;;;;;;;;5059813;28;20394;-78
2021/07/19 14:01:00;;;;;;;21.40;7.55;;;;;;;;;;5077301;28;20055;-78
2021/07/19 14:03:26;;;;;;;13.48;5.70;;;;;;;;;;5059260;28;20090;-78
2021/07/19 14:05:52;;;;;;;11.55;4.75;;;;;;;;;;5076524;28;20453;-78
2021/07/19 14:08:18;;;;;;;15.07;4.72;;;;;;;;;;5075530;28;20086;-79
2021/07/19 14:10:44;;;;;;;11.18;5.00;;;;;;;;;;5059892;28;20039;-78
2021/07/19 14:13:11;;;;;;;19.42;6.00;;;;;;;;;;5058830;28;20113;-80
2021/07/19 14:15:38;;;;;;;10.38;5.60;;;;;;;;;;5075931;28;20039;-79
2021/07/19 14:18:04;;;;;;;8.45;5.53;;;;;;;;;;5059110;28;20112;-79
2021/07/19 14:20:31;;;;;;;11.63;6.13;;;;;;;;;;5078037;28;20466;-80
2021/07/19 14:22:56;;;;;;;13.18;5.85;;;;;;;;;;5078985;28;20041;-79
2021/07/19 14:25:23;;;;;;;13.48;5.57;;;;;;;;;;5100892;28;20042;-79
2021/07/19 14:27:50;;;;;;;11.52;6.35;;;;;;;;;;5083766;28;20058;-79
2021/07/19 14:30:17;;;;;;;18.40;6.57;;;;;;;;;;5100475;28;20032;-78
2021/07/19 14:32:44;;;;;;;13.43;6.53;;;;;;;;;;5083104;28;20038;-80
2021/07/19 14:35:11;;;;;;;15.45;6.65;;;;;;;;;;5099402;28;20062;-78
2021/07/19 14:37:39;;;;;;;15.02;6.45;;;;;;;;;;5098870;28;20053;-79
2021/07/19 14:40:07;;;;;;;16.73;6.95;;;;;;;;;;5081105;28;20035;-78
2021/07/19 14:42:32;;;;;;;17.55;6.68;;;;;;;;;;5099836;28;20119;-79
2021/07/19 14:44:59;;;;;;;12.60;6.70;;;;;;;;;;5083340;28;20113;-79
2021/07/19 14:47:24;;;;;;;18.40;7.95;;;;;;;;;;5100805;28;20083;-79